Time;durP1;ratioP1;P1;durP2;ratioP2;P2;SDS_P1;SDS_P2;PMS_P1;PMS_P2;Temp;Humidity;BMP_temperature;BMP_pressure;BME280_temperature;BME280_humidity;BME280_pressure;Samples;Min_cycle;Max_cycle;Signal;HPM_P1;HPM_P2
2023/09/02 00:02:21;;;;;;;33.58;25.23;;;;;;;16.04;100.00;101611.06;5064647;28;20024;-76
2023/09/02 00:04:46;;;;;;;34.60;25.02;;;;;;;16.05;100.00;101600.47;5065868;28;20104;-76
2023/09/02 00:07:12;;;;;;;36.35;25.65;;;;;;;16.05;100.00;101600.47;5062927;28;20028;-76
2023/09/02 00:09:37;;;;;;;36.80;25.85;;;;;;;16.04;100.00;101597.91;5065810;28;20043;-76
2023/09/02 00:12:02;;;;;;;34.65;25.17;;;;;;;16.06;100.00;101601.34;5068026;28;20067;-76
2023/09/02 00:14:28;;;;;;;33.80;25.08;;;;;;;16.09;100.00;101606.50;5071167;28;20079;-76
2023/09/02 00:16:53;;;;;;;35.85;26.05;;;;;;;16.09;100.00;101607.38;5066855;28;20074;-76
2023/09/02 00:19:18;;;;;;;33.35;24.80;;;;;;;16.12;100.00;101602.00;5061053;28;20450;-76
2023/09/02 00:21:43;;;;;;;34.70;24.95;;;;;;;16.13;100.00;101601.06;5059031;28;20037;-76
2023/09/02 00:24:09;;;;;;;32.30;24.13;;;;;;;16.12;100.00;101595.84;5060043;28;20024;-76
2023/09/02 00:26:34;;;;;;;35.10;24.50;;;;;;;16.09;100.00;101596.84;5059252;28;20029;-76
2023/09/02 00:29:00;;;;;;;32.08;23.73;;;;;;;16.07;100.00;101598.66;5059156;28;20079;-76
2023/09/02 00:31:26;;;;;;;37.08;24.77;;;;;;;16.09;100.00;101610.00;5058750;28;20029;-76
2023/09/02 00:33:52;;;;;;;32.15;24.73;;;;;;;16.10;100.00;101605.59;5061858;28;20036;-76
2023/09/02 00:36:18;;;;;;;31.10;23.95;;;;;;;16.10;100.00;101611.69;5063531;28;20029;-76
2023/09/02 00:38:43;;;;;;;32.35;23.65;;;;;;;16.06;100.00;101603.97;5062092;28;20039;-76
2023/09/02 00:41:14;;;;;;;42.53;24.60;;;;;;;16.07;100.00;101616.22;5064720;28;20070;-76
2023/09/02 00:43:41;;;;;;;40.35;25.65;;;;;;;16.13;100.00;101619.50;5068382;28;20346;-76
2023/09/02 00:46:08;;;;;;;36.00;26.25;;;;;;;16.18;100.00;101619.31;5066567;28;20511;-76
2023/09/02 00:48:33;;;;;;;41.10;25.33;;;;;;;16.19;100.00;101621.06;5064951;28;20120;-76
2023/09/02 00:50:59;;;;;;;34.53;26.02;;;;;;;16.21;100.00;101619.22;5063251;28;20031;-76
2023/09/02 00:53:24;;;;;;;36.65;26.10;;;;;;;16.25;100.00;101617.34;5069444;28;20112;-76
2023/09/02 00:55:51;;;;;;;51.08;27.25;;;;;;;16.22;100.00;101628.84;5061157;28;20103;-76
2023/09/02 00:58:17;;;;;;;38.88;26.67;;;;;;;16.25;100.00;101622.59;5068624;28;20490;-76
2023/09/02 01:00:43;;;;;;;38.97;26.55;;;;;;;16.30;100.00;101618.03;5066364;28;20020;-76
2023/09/02 01:03:09;;;;;;;46.30;28.02;;;;;;;16.30;100.00;101604.88;5065554;28;20040;-76
2023/09/02 01:05:35;;;;;;;45.58;27.75;;;;;;;16.24;100.00;101610.38;5066350;28;20522;-76
2023/09/02 01:08:03;;;;;;;58.42;28.48;;;;;;;16.28;100.00;101619.84;5064735;28;20020;-76
2023/09/02 01:10:29;;;;;;;44.17;27.38;;;;;;;16.31;100.00;101617.13;5064369;28;20025;-76
2023/09/02 01:12:54;;;;;;;44.90;28.17;;;;;;;16.34;100.00;101620.50;5065811;28;20086;-77
2023/09/02 01:15:20;;;;;;;45.15;28.73;;;;;;;16.29;100.00;101611.06;5062493;28;20032;-76
2023/09/02 01:17:45;;;;;;;40.72;27.33;;;;;;;16.29;100.00;101619.81;5065834;28;20025;-77
2023/09/02 01:20:13;;;;;;;39.75;26.58;;;;;;;16.25;100.00;101627.84;5065156;28;20024;-76
2023/09/02 01:22:48;;;;;;;42.25;25.95;;;;;;;16.22;100.00;101626.22;5052885;28;20027;-76
2023/09/02 01:25:48;;;;;;;43.85;26.88;;;;;;;16.22;100.00;101627.97;5065653;28;20060;-76
2023/09/02 01:28:20;;;;;;;41.58;26.92;;;;;;;16.26;100.00;101624.34;5036178;28;20044;-76
2023/09/02 01:30:48;;;;;;;41.83;27.42;;;;;;;16.24;100.00;101626.16;5061438;28;20112;-76
2023/09/02 01:33:15;;;;;;;37.35;25.63;;;;;;;16.28;100.00;101625.13;5065668;28;20040;-76
2023/09/02 01:35:42;;;;;;;39.75;26.70;;;;;;;16.27;100.00;101628.69;5062404;28;20057;-76
2023/09/02 01:38:07;;;;;;;43.25;27.23;;;;;;;16.30;100.00;101620.69;5065178;28;20452;-76
2023/09/02 01:40:34;;;;;;;44.13;28.15;;;;;;;16.31;100.00;101636.41;5053660;28;20055;-76
2023/09/02 01:43:00;;;;;;;44.30;26.63;;;;;;;16.27;100.00;101628.69;5058385;28;20380;-76
2023/09/02 01:45:38;;;;;;;37.90;25.80;;;;;;;16.27;100.00;101636.56;5062975;28;20035;-76
2023/09/02 01:48:04;;;;;;;39.05;25.70;;;;;;;16.31;100.00;101640.81;5057155;28;20442;-76
2023/09/02 01:50:32;;;;;;;38.38;25.63;;;;;;;16.31;100.00;101627.66;5058781;28;20034;-76
2023/09/02 01:52:58;;;;;;;39.85;26.17;;;;;;;16.30;100.00;101626.78;5065709;28;20127;-76
2023/09/02 01:55:24;;;;;;;38.20;26.05;;;;;;;16.32;100.00;101643.41;5061292;28;20257;-76
2023/09/02 01:57:49;;;;;;;40.35;26.20;;;;;;;16.31;100.00;101649.56;5062106;28;20028;-76
2023/09/02 02:00:15;;;;;;;42.95;26.65;;;;;;;16.31;100.00;101646.06;5065140;28;20502;-76
2023/09/02 02:02:42;;;;;;;43.50;27.08;;;;;;;16.30;100.00;101647.00;5063925;28;20499;-76
2023/09/02 02:05:11;;;;;;;39.58;25.85;;;;;;;16.27;100.00;101636.56;5063844;28;20079;-76
2023/09/02 02:07:41;;;;;;;39.47;25.02;;;;;;;16.28;100.00;101644.41;5064820;28;20031;-76
2023/09/02 02:10:10;;;;;;;36.22;25.00;;;;;;;16.27;100.00;101639.19;5063024;28;20071;-76
2023/09/02 02:12:40;;;;;;;42.05;25.63;;;;;;;16.25;100.00;101649.78;5060668;28;20036;-76
2023/09/02 02:15:10;;;;;;;39.67;23.88;;;;;;;16.24;100.00;101647.19;5062705;28;20033;-76
2023/09/02 02:17:36;;;;;;;31.80;22.65;;;;;;;16.17;100.00;101640.44;5066203;28;20013;-76
2023/09/02 02:20:01;;;;;;;36.97;24.33;;;;;;;16.18;100.00;101642.13;5061559;28;20033;-76
2023/09/02 02:22:26;;;;;;;36.08;23.52;;;;;;;16.17;100.00;101641.28;5064659;28;20027;-76
2023/09/02 02:24:52;;;;;;;37.35;24.48;;;;;;;16.15;100.00;101649.25;5063843;28;20361;-76
2023/09/02 02:27:17;;;;;;;32.72;21.85;;;;;;;16.14;100.00;101657.16;5061946;28;20032;-76
2023/09/02 02:29:42;;;;;;;35.65;22.98;;;;;;;16.12;100.00;101645.81;5066207;28;20380;-76
2023/09/02 02:32:07;;;;;;;43.92;24.15;;;;;;;16.11;100.00;101657.28;5068329;28;20133;-76
2023/09/02 02:34:33;;;;;;;32.33;23.02;;;;;;;16.06;100.00;101649.53;5061476;28;20024;-76
2023/09/02 02:36:58;;;;;;;36.00;22.25;;;;;;;16.09;100.00;101654.72;5060473;28;20021;-76
2023/09/02 02:39:23;;;;;;;38.45;22.00;;;;;;;16.12;100.00;101657.25;5067039;28;20032;-76
2023/09/02 02:41:49;;;;;;;33.72;23.63;;;;;;;16.12;100.00;101661.59;5055914;28;20032;-76
2023/09/02 02:44:14;;;;;;;35.17;22.85;;;;;;;16.10;100.00;101660.81;5060037;28;20032;-76
2023/09/02 02:46:39;;;;;;;28.70;21.33;;;;;;;16.13;100.00;101665.97;5057225;28;20060;-76
2023/09/02 02:49:05;;;;;;;45.72;23.00;;;;;;;16.13;100.00;101666.84;5062154;28;20045;-76
2023/09/02 02:51:30;;;;;;;32.10;21.88;;;;;;;16.15;100.00;101665.03;5062276;28;20024;-76
2023/09/02 02:53:55;;;;;;;27.95;21.23;;;;;;;16.11;100.00;101663.38;5063086;28;20528;-76
2023/09/02 02:56:21;;;;;;;32.25;21.50;;;;;;;16.12;100.00;101659.88;5063037;28;20024;-76
2023/09/02 02:58:46;;;;;;;28.50;21.05;;;;;;;16.10;100.00;101656.41;5061681;28;20476;-76
2023/09/02 03:01:12;;;;;;;31.00;20.83;;;;;;;16.11;100.00;101663.38;5059964;28;20050;-76
2023/09/02 03:03:38;;;;;;;30.65;21.40;;;;;;;16.08;100.00;101663.50;5060626;28;20058;-76
2023/09/02 03:06:04;;;;;;;28.98;21.05;;;;;;;16.13;100.00;101672.09;5063123;28;20407;-76
2023/09/02 03:08:30;;;;;;;28.27;20.17;;;;;;;16.09;100.00;101670.50;5059913;28;20115;-76
2023/09/02 03:11:05;;;;;;;25.77;19.02;;;;;;;16.08;100.00;101660.00;5063012;28;20076;-76
2023/09/02 03:13:33;;;;;;;29.75;19.88;;;;;;;16.07;100.00;101659.16;5055673;28;20354;-76
2023/09/02 03:16:02;;;;;;;26.98;18.58;;;;;;;16.03;100.00;101654.91;5058869;28;20444;-76
2023/09/02 03:18:28;;;;;;;30.42;18.52;;;;;;;15.99;100.00;101653.31;5052963;28;20028;-76
2023/09/02 03:20:54;;;;;;;30.48;18.98;;;;;;;15.97;100.00;101664.78;5060172;28;20021;-76
2023/09/02 03:23:20;;;;;;;30.80;18.80;;;;;;;15.91;100.00;101658.78;5056792;28;20491;-76
2023/09/02 03:25:45;;;;;;;26.90;18.15;;;;;;;15.90;100.00;101654.44;5064813;28;20103;-76
2023/09/02 03:28:12;;;;;;;28.42;18.67;;;;;;;15.86;100.00;101652.84;5055585;28;20486;-76
2023/09/02 03:30:37;;;;;;;28.92;18.10;;;;;;;15.87;100.00;101662.44;5056872;28;20107;-76
2023/09/02 03:33:03;;;;;;;38.55;19.10;;;;;;;15.82;100.00;101664.34;5058497;28;20123;-76
2023/09/02 03:35:28;;;;;;;26.50;17.52;;;;;;;15.79;100.00;101668.84;5060425;28;20389;-76
2023/09/02 03:37:54;;;;;;;24.92;17.52;;;;;;;15.77;100.00;101657.53;5062042;28;20392;-76
2023/09/02 03:40:19;;;;;;;26.65;17.23;;;;;;;15.77;100.00;101671.53;5060357;28;20452;-76
2023/09/02 03:42:45;;;;;;;24.35;16.80;;;;;;;15.81;100.00;101674.91;5059720;28;20029;-76
2023/09/02 03:45:10;;;;;;;25.25;17.80;;;;;;;15.83;100.00;101675.75;5054287;28;20025;-76
2023/09/02 03:47:36;;;;;;;29.15;18.15;;;;;;;15.85;100.00;101687.06;5051281;28;20049;-76
2023/09/02 03:50:03;;;;;;;29.80;17.98;;;;;;;15.85;100.00;101689.69;5063920;28;20078;-76
2023/09/02 03:52:28;;;;;;;28.33;17.35;;;;;;;15.86;100.00;101689.66;5057869;28;20021;-76
2023/09/02 03:54:54;;;;;;;25.08;16.38;;;;;;;15.90;100.00;101687.78;5064249;28;20021;-76
2023/09/02 03:57:19;;;;;;;30.17;16.75;;;;;;;15.93;100.00;101697.34;5060198;28;20025;-76
2023/09/02 03:59:45;;;;;;;26.58;15.82;;;;;;;15.94;100.00;101689.41;5053546;28;20029;-76
2023/09/02 04:02:10;;;;;;;23.33;15.27;;;;;;;15.89;100.00;101686.03;5057056;28;20387;-76
2023/09/02 04:04:35;;;;;;;21.50;15.85;;;;;;;15.90;100.00;101686.00;5065227;28;20020;-76
2023/09/02 04:07:00;;;;;;;27.55;15.15;;;;;;;15.89;100.00;101678.16;5057372;28;20061;-76
2023/09/02 04:09:27;;;;;;;22.80;15.02;;;;;;;15.89;100.00;101688.66;5068089;28;20115;-76
2023/09/02 04:11:53;;;;;;;17.92;12.77;;;;;;;15.89;100.00;101686.03;5059052;28;20044;-76
2023/09/02 04:14:18;;;;;;;21.63;14.40;;;;;;;15.88;100.00;101694.84;5068752;28;20024;-76
2023/09/02 04:16:43;;;;;;;22.38;13.73;;;;;;;15.87;100.00;101694.00;5063182;28;20099;-76
2023/09/02 04:19:09;;;;;;;21.27;13.68;;;;;;;15.88;100.00;101690.44;5060105;28;20017;-75
2023/09/02 04:21:34;;;;;;;26.80;13.85;;;;;;;15.86;100.00;101688.78;5064022;28;20037;-75
2023/09/02 04:24:00;;;;;;;22.00;13.65;;;;;;;15.85;100.00;101689.69;5065789;28;20490;-75
2023/09/02 04:26:26;;;;;;;19.88;12.93;;;;;;;15.88;100.00;101692.22;5064276;28;20373;-76
2023/09/02 04:28:54;;;;;;;22.45;13.60;;;;;;;15.87;100.00;101690.50;5064000;28;20031;-76
2023/09/02 04:31:19;;;;;;;23.52;13.63;;;;;;;15.87;100.00;101694.00;5063115;28;20017;-76
2023/09/02 04:33:44;;;;;;;17.80;13.32;;;;;;;15.83;100.00;101694.16;5060961;28;20036;-76
2023/09/02 04:36:09;;;;;;;17.30;12.98;;;;;;;15.83;100.00;101695.00;5065495;28;20383;-76
2023/09/02 04:38:35;;;;;;;16.40;12.75;;;;;;;15.80;100.00;101689.00;5065280;28;20025;-76
2023/09/02 04:41:06;;;;;;;16.95;13.25;;;;;;;15.81;100.00;101699.44;5066302;28;20052;-76
2023/09/02 04:43:32;;;;;;;15.48;11.95;;;;;;;15.83;100.00;101699.41;5063676;28;20025;-76
2023/09/02 04:46:03;;;;;;;16.00;11.95;;;;;;;15.84;100.00;101699.34;5067450;28;20027;-76
2023/09/02 04:48:29;;;;;;;19.48;12.80;;;;;;;15.85;100.00;101697.56;5063860;28;20045;-76
2023/09/02 04:50:55;;;;;;;18.40;12.32;;;;;;;15.85;100.00;101702.81;5066145;28;20035;-76
2023/09/02 04:53:21;;;;;;;24.80;12.25;;;;;;;15.84;100.00;101706.38;5064609;28;20377;-76
2023/09/02 04:55:47;;;;;;;16.85;12.23;;;;;;;15.80;100.00;101705.63;5065308;28;20060;-76
2023/09/02 04:58:13;;;;;;;16.48;11.73;;;;;;;15.82;100.00;101714.28;5064977;28;20025;-76
2023/09/02 05:00:39;;;;;;;18.13;12.10;;;;;;;15.81;100.00;101702.06;5065434;28;20041;-76
2023/09/02 05:03:05;;;;;;;21.73;12.32;;;;;;;15.80;100.00;101704.75;5061887;28;20029;-76
2023/09/02 05:05:31;;;;;;;17.92;11.80;;;;;;;15.78;100.00;101711.81;5061654;28;20040;-76
2023/09/02 05:07:57;;;;;;;25.45;13.40;;;;;;;15.79;100.00;101716.16;5057132;28;20025;-76
2023/09/02 05:10:23;;;;;;;15.98;12.07;;;;;;;15.75;100.00;101709.28;5071579;28;20056;-76
2023/09/02 05:12:48;;;;;;;16.30;12.52;;;;;;;15.73;100.00;101703.22;5062330;28;20029;-76
2023/09/02 05:15:13;;;;;;;15.35;11.57;;;;;;;15.72;100.00;101712.88;5070394;28;20350;-76
2023/09/02 05:17:39;;;;;;;19.55;12.82;;;;;;;15.65;100.00;101717.41;5059049;28;20048;-76
2023/09/02 05:20:05;;;;;;;17.13;11.93;;;;;;;15.62;100.00;101722.78;5070137;28;20494;-76
2023/09/02 05:22:31;;;;;;;19.45;12.48;;;;;;;15.62;100.00;101727.16;5057591;28;20124;-76
2023/09/02 05:24:57;;;;;;;16.40;11.95;;;;;;;15.63;100.00;101736.75;5063776;28;20422;-76
2023/09/02 05:27:22;;;;;;;19.40;12.00;;;;;;;15.60;100.00;101744.78;5058086;28;20033;-76
2023/09/02 05:29:48;;;;;;;17.85;12.68;;;;;;;15.55;100.00;101747.53;5067751;28;20103;-76
2023/09/02 05:32:14;;;;;;;15.98;11.88;;;;;;;15.54;100.00;101740.56;5065581;28;20480;-76
2023/09/02 05:34:40;;;;;;;15.65;11.32;;;;;;;15.56;100.00;101751.00;5061821;28;20029;-76
2023/09/02 05:37:06;;;;;;;17.20;12.05;;;;;;;15.52;100.00;101758.13;5064785;28;20024;-76
2023/09/02 05:39:31;;;;;;;18.45;11.77;;;;;;;15.54;100.00;101766.84;5064076;28;20028;-76
2023/09/02 05:41:57;;;;;;;16.92;12.35;;;;;;;15.57;100.00;101763.25;5064237;28;20036;-76
2023/09/02 05:44:22;;;;;;;14.60;11.60;;;;;;;15.59;100.00;101759.66;5064764;28;20033;-76
2023/09/02 05:46:48;;;;;;;17.27;12.20;;;;;;;15.62;100.00;101754.31;5062011;28;20082;-76
2023/09/02 05:49:13;;;;;;;16.45;12.23;;;;;;;15.68;100.00;101756.78;5066701;28;20051;-76
2023/09/02 05:51:39;;;;;;;19.42;13.23;;;;;;;15.76;100.00;101751.31;5061416;28;20033;-76
2023/09/02 05:54:06;;;;;;;19.75;13.55;;;;;;;15.83;100.00;101749.38;5062451;28;20025;-76
2023/09/02 05:56:33;;;;;;;20.77;13.52;;;;;;;15.85;100.00;101743.13;5062543;28;20093;-76
2023/09/02 05:58:59;;;;;;;24.45;14.90;;;;;;;15.93;100.00;101756.06;5065386;28;20067;-76
2023/09/02 06:01:24;;;;;;;21.02;14.25;;;;;;;15.97;100.00;101755.03;5062262;28;20406;-76
2023/09/02 06:03:49;;;;;;;21.25;13.57;;;;;;;16.03;100.00;101759.25;5059813;28;20488;-76
2023/09/02 06:06:15;;;;;;;19.83;13.77;;;;;;;16.02;100.00;101763.66;5065418;28;20037;-76
2023/09/02 06:08:40;;;;;;;16.88;12.68;;;;;;;16.06;100.00;101764.41;5057603;28;20025;-76
2023/09/02 06:11:06;;;;;;;25.45;13.55;;;;;;;16.06;100.00;101764.41;5068517;28;20025;-76
2023/09/02 06:13:32;;;;;;;18.98;12.77;;;;;;;16.11;100.00;101778.28;5061795;28;20024;-76
2023/09/02 06:15:59;;;;;;;19.73;13.48;;;;;;;16.14;100.00;101775.53;5063279;28;20473;-76
2023/09/02 06:18:24;;;;;;;22.48;14.10;;;;;;;16.19;100.00;101780.69;5056161;28;20032;-76
2023/09/02 06:20:50;;;;;;;21.60;13.30;;;;;;;16.22;100.00;101788.44;5066311;28;20029;-76
2023/09/02 06:23:15;;;;;;;24.70;15.20;;;;;;;16.27;100.00;101783.91;5058777;28;20098;-76
2023/09/02 06:25:40;;;;;;;19.50;13.50;;;;;;;16.31;100.00;101788.16;5067821;28;20435;-76
2023/09/02 06:28:06;;;;;;;21.10;14.20;;;;;;;16.35;100.00;101792.44;5057014;28;20473;-76
2023/09/02 06:30:31;;;;;;;24.55;15.73;;;;;;;16.35;100.00;101795.91;5063156;28;20581;-76
2023/09/02 06:32:56;;;;;;;24.33;16.00;;;;;;;16.40;100.00;101793.13;5057862;28;20063;-75
2023/09/02 06:35:22;;;;;;;22.83;16.35;;;;;;;16.47;100.00;101813.06;5062064;28;20028;-76
2023/09/02 06:37:49;;;;;;;29.23;17.27;;;;;;;16.52;100.00;101815.56;5066287;28;20060;-75
2023/09/02 06:40:14;;;;;;;25.67;16.70;;;;;;;16.52;100.00;101816.41;5060676;28;20037;-76
2023/09/02 06:42:40;;;;;;;26.17;16.40;;;;;;;16.53;100.00;101810.22;5067068;28;20031;-76
2023/09/02 06:45:06;;;;;;;22.77;16.55;;;;;;;16.58;100.00;101826.75;5056539;28;20033;-76
2023/09/02 06:47:33;;;;;;;25.75;16.70;;;;;;;16.61;100.00;101834.56;5059349;28;20053;-76
2023/09/02 06:49:58;;;;;;;22.45;16.33;;;;;;;16.67;100.00;101835.25;5054121;28;20524;-76
2023/09/02 06:52:24;;;;;;;23.88;16.73;;;;;;;16.69;100.00;101841.31;5052952;28;20119;-76
2023/09/02 06:54:50;;;;;;;23.63;17.02;;;;;;;16.67;100.00;101846.63;5057776;28;20068;-76
2023/09/02 06:57:15;;;;;;;23.25;16.83;;;;;;;16.70;100.00;101846.53;5057484;28;20107;-76
2023/09/02 06:59:40;;;;;;;27.50;18.15;;;;;;;16.79;100.00;101855.94;5048123;28;20461;-76
2023/09/02 07:02:06;;;;;;;24.85;17.88;;;;;;;16.90;100.00;101859.06;5054943;28;20048;-76
2023/09/02 07:04:31;;;;;;;28.33;20.60;;;;;;;16.83;100.00;101853.13;5063411;28;20460;-75
2023/09/02 07:06:56;;;;;;;30.30;19.08;;;;;;;16.97;100.00;101864.97;5054662;28;20101;-75
2023/09/02 07:09:22;;;;;;;28.98;19.77;;;;;;;17.04;100.00;101867.38;5058105;28;20032;-75
2023/09/02 07:11:47;;;;;;;27.45;18.88;;;;;;;17.09;100.00;101872.47;5055075;28;20025;-75
2023/09/02 07:14:12;;;;;;;25.95;18.95;;;;;;;17.13;100.00;101871.44;5057598;28;20600;-76
2023/09/02 07:16:38;;;;;;;26.67;18.58;;;;;;;17.17;100.00;101888.03;5060966;28;20112;-76
2023/09/02 07:19:03;;;;;;;23.90;17.77;;;;;;;17.23;100.00;101885.16;5057290;28;20369;-75
2023/09/02 07:21:29;;;;;;;21.95;17.27;;;;;;;17.22;100.00;101892.22;5059580;28;20025;-75
2023/09/02 07:23:54;;;;;;;22.52;16.85;;;;;;;17.22;100.00;101883.44;5059783;28;20019;-75
2023/09/02 07:26:20;;;;;;;23.52;18.40;;;;;;;17.29;100.00;101885.81;5057906;28;20059;-76
2023/09/02 07:28:45;;;;;;;27.67;19.25;;;;;;;17.38;100.00;101889.06;5058648;28;20024;-76
2023/09/02 07:31:11;;;;;;;26.60;19.15;;;;;;;17.45;100.00;101886.13;5058435;28;20025;-75
2023/09/02 07:33:37;;;;;;;24.20;19.10;;;;;;;17.50;100.00;101881.56;5048622;28;20113;-76
2023/09/02 07:36:07;;;;;;;26.17;17.70;;;;;;;17.61;100.00;101897.00;5059047;28;20036;-76
2023/09/02 07:38:32;;;;;;;23.30;17.88;;;;;;;17.59;100.00;101890.06;5063146;28;20036;-76
2023/09/02 07:40:58;;;;;;;20.65;18.45;;;;;;;17.61;100.00;101893.50;5063812;28;20472;-74
2023/09/02 07:43:23;;;;;;;23.90;19.23;;;;;;;17.62;100.00;101896.06;5055612;28;20112;-74
2023/09/02 07:45:49;;;;;;;23.10;17.75;;;;;;;17.62;100.00;101903.13;5062536;28;20400;-74
2023/09/02 07:48:14;;;;;;;25.73;18.27;;;;;;;17.60;100.00;101904.97;5056294;28;20144;-73
2023/09/02 07:50:39;;;;;;;24.35;18.80;;;;;;;17.68;100.00;101902.91;5058742;28;20037;-74
2023/09/02 07:53:05;;;;;;;24.17;18.40;;;;;;;17.73;100.00;101904.47;5068190;28;20032;-73
2023/09/02 07:55:30;;;;;;;23.48;18.30;;;;;;;17.78;100.00;101909.59;5070685;28;20111;-73
2023/09/02 07:57:57;;;;;;;19.88;16.98;;;;;;;17.77;100.00;101911.38;5063825;28;20025;-73
2023/09/02 08:00:22;;;;;;;23.35;17.80;;;;;;;17.83;100.00;101923.50;5050866;28;20476;-73
2023/09/02 08:02:48;;;;;;;21.60;18.75;;;;;;;17.91;100.00;101918.78;5057652;28;20082;-73
2023/09/02 08:05:13;;;;;;;21.15;18.65;;;;;;;17.96;100.00;101922.13;5055017;28;20021;-73
2023/09/02 08:07:38;;;;;;;21.80;18.00;;;;;;;18.06;100.00;101922.63;5062732;28;20372;-73
2023/09/02 08:10:04;;;;;;;21.92;18.10;;;;;;;18.08;100.00;101925.19;5061089;28;20464;-72
2023/09/02 08:12:29;;;;;;;20.23;17.42;;;;;;;18.10;100.00;101926.88;5068123;28;20028;-73
2023/09/02 08:14:55;;;;;;;21.55;18.15;;;;;;;18.09;100.00;101932.22;5063398;28;20448;-73
2023/09/02 08:17:20;;;;;;;19.80;17.48;;;;;;;18.14;100.00;101930.25;5061887;28;20056;-73
2023/09/02 08:19:45;;;;;;;22.00;17.42;;;;;;;18.18;100.00;101927.47;5066304;28;20071;-73
2023/09/02 08:22:13;;;;;;;21.13;17.17;;;;;;;18.34;100.00;101924.22;5055845;28;20021;-73
2023/09/02 08:24:38;;;;;;;24.02;18.85;;;;;;;18.43;100.00;101927.34;5053168;28;20031;-74
2023/09/02 08:27:03;;;;;;;22.42;19.20;;;;;;;18.52;100.00;101927.94;5072821;28;20068;-75
2023/09/02 08:29:29;;;;;;;20.85;18.13;;;;;;;18.55;100.00;101930.44;5064633;28;20111;-75
2023/09/02 08:31:55;;;;;;;19.13;17.10;;;;;;;18.58;100.00;101930.34;5057753;28;20037;-75
2023/09/02 08:34:21;;;;;;;23.83;18.27;;;;;;;18.57;100.00;101936.50;5066606;28;20020;-75
2023/09/02 08:36:46;;;;;;;20.33;18.05;;;;;;;18.61;100.00;101946.06;5059497;28;20154;-79
2023/09/02 08:39:12;;;;;;;20.52;18.35;;;;;;;18.54;100.00;101944.56;5064381;28;20033;-75
2023/09/02 08:41:39;;;;;;;23.25;19.02;;;;;;;18.48;100.00;101953.59;5067065;28;20426;-77
2023/09/02 08:44:05;;;;;;;19.67;17.52;;;;;;;18.44;100.00;101950.22;5074366;28;20442;-77
2023/09/02 08:46:32;;;;;;;21.90;19.35;;;;;;;18.45;100.00;101951.94;5071544;28;20104;-77
2023/09/02 08:48:58;;;;;;;23.50;20.67;;;;;;;18.54;100.00;101949.84;5067184;28;20076;-76
2023/09/02 08:51:24;;;;;;;24.30;21.75;;;;;;;18.68;100.00;101961.59;5065730;28;20063;-76
2023/09/02 08:53:51;;;;;;;25.55;21.73;;;;;;;19.00;100.00;101940.09;5056631;28;20457;-76
2023/09/02 08:56:16;;;;;;;25.00;21.73;;;;;;;19.27;100.00;101961.88;5065489;28;20029;-77
2023/09/02 08:58:43;;;;;;;22.70;20.30;;;;;;;19.29;100.00;101952.09;5060838;28;20405;-76
2023/09/02 09:01:09;;;;;;;27.98;20.25;;;;;;;19.42;100.00;101950.63;5048906;28;20037;-75
2023/09/02 09:03:39;;;;;;;22.38;20.02;;;;;;;19.57;100.00;101946.50;5057370;28;20114;-75
2023/09/02 09:06:08;;;;;;;23.27;20.92;;;;;;;19.68;100.00;101954.84;5059365;28;20021;-75
2023/09/02 09:08:35;;;;;;;23.85;20.80;;;;;;;19.75;100.00;101950.13;5053830;28;20468;-75
2023/09/02 09:11:02;;;;;;;24.52;21.40;;;;;;;19.78;100.00;101948.22;5061726;28;20025;-75
2023/09/02 09:13:28;;;;;;;24.30;21.45;;;;;;;19.78;100.00;101964.09;5059919;28;20036;-76
2023/09/02 09:15:56;;;;;;;25.25;22.65;;;;;;;19.94;100.00;101960.75;5064522;28;20051;-76
2023/09/02 09:18:22;;;;;;;25.83;23.20;;;;;;;20.19;100.00;101964.00;5065955;28;20074;-77
2023/09/02 09:20:47;;;;;;;25.52;22.38;;;;;;;20.34;100.00;101963.31;5073523;28;20032;-77
2023/09/02 09:23:13;;;;;;;27.05;24.05;;;;;;;20.42;100.00;101954.16;5066942;28;20035;-77
2023/09/02 09:25:38;;;;;;;27.23;24.33;;;;;;;20.33;100.00;101963.38;5073450;28;20020;-76
2023/09/02 09:28:11;;;;;;;26.65;24.02;;;;;;;20.22;100.00;101957.72;5070058;28;20036;-77
2023/09/02 09:30:37;;;;;;;28.83;25.98;;;;;;;20.26;100.00;101969.88;5057635;28;20021;-76
2023/09/02 09:33:07;;;;;;;29.58;26.67;;;;;;;20.31;100.00;101968.75;5070425;28;20044;-76
2023/09/02 09:35:33;;;;;;;29.65;26.80;;;;;;;20.30;100.00;101987.34;5072058;28;20094;-76
2023/09/02 09:38:00;;;;;;;28.70;25.70;;;;;;;20.30;100.00;101992.63;5070413;28;20025;-76
2023/09/02 09:40:33;;;;;;;30.13;26.90;;;;;;;20.30;100.00;101995.28;5072724;28;20467;-76
2023/09/02 09:43:00;;;;;;;30.13;27.02;;;;;;;20.39;100.00;101991.38;5068968;28;20472;-76
2023/09/02 09:45:26;;;;;;;31.42;28.25;;;;;;;20.49;100.00;102001.44;5069320;28;20021;-76
2023/09/02 09:47:52;;;;;;;32.03;28.35;;;;;;;20.52;100.00;101996.03;5053193;28;20089;-76
2023/09/02 09:50:18;;;;;;;30.00;27.00;;;;;;;20.64;100.00;101997.25;5065814;28;20029;-76
2023/09/02 09:53:01;;;;;;;29.45;26.65;;;;;;;20.77;100.00;101995.75;5063195;28;20480;-76
2023/09/02 09:55:28;;;;;;;26.55;24.05;;;;;;;20.93;100.00;101993.22;5066015;28;20036;-76
2023/09/02 09:57:55;;;;;;;25.52;22.90;;;;;;;21.33;100.00;101996.53;5063332;28;20028;-76
2023/09/02 10:00:20;;;;;;;26.02;23.63;;;;;;;21.73;100.00;102000.69;5067809;28;20021;-76
2023/09/02 10:02:58;;;;;;;27.20;24.65;;;;;;;21.65;100.00;101994.94;5061045;28;20353;-76
2023/09/02 10:05:30;;;;;;;28.30;25.63;;;;;;;21.33;100.00;102001.84;5061762;28;20017;-76
2023/09/02 10:07:59;;;;;;;28.35;25.55;;;;;;;21.25;100.00;102002.25;5060359;28;20029;-76
2023/09/02 10:10:30;;;;;;;28.73;26.13;;;;;;;21.44;100.00;102001.31;5067950;28;20478;-77
2023/09/02 10:12:56;;;;;;;29.45;26.55;;;;;;;21.37;100.00;102005.22;5062041;28;20025;-76
2023/09/02 10:15:26;;;;;;;29.00;26.13;;;;;;;21.27;100.00;102010.97;5069659;28;20472;-76
2023/09/02 10:17:55;;;;;;;25.83;23.35;;;;;;;21.35;100.00;102009.75;5061091;28;20039;-77
2023/09/02 10:20:23;;;;;;;24.67;22.38;;;;;;;21.71;100.00;102017.63;5064575;28;20025;-77
2023/09/02 10:22:51;;;;;;;24.70;22.48;;;;;;;21.79;100.00;102023.41;5063861;28;20060;-76
2023/09/02 10:25:27;;;;;;;24.77;22.58;;;;;;;21.92;100.00;102026.28;5062634;28;20044;-76
2023/09/02 10:28:23;;;;;;;24.67;22.27;;;;;;;21.88;100.00;102022.06;5064519;28;20071;-76
2023/09/02 10:30:56;;;;;;;27.95;25.13;;;;;;;21.57;100.00;102021.00;5051682;28;20043;-77
2023/09/02 10:33:53;;;;;;;30.63;27.48;;;;;;;21.66;100.00;102024.97;5060513;28;20057;-76
2023/09/02 10:36:22;;;;;;;29.48;26.63;;;;;;;21.78;100.00;102024.34;5060895;28;20480;-77
2023/09/02 10:38:49;;;;;;;29.40;26.67;;;;;;;21.91;100.00;102028.09;5063710;28;20016;-76
2023/09/02 10:41:16;;;;;;;29.30;26.55;;;;;;;21.84;100.00;102033.78;5063483;28;20020;-76
2023/09/02 10:43:43;;;;;;;28.45;25.70;;;;;;;21.73;100.00;102043.16;5063454;28;20060;-77
2023/09/02 10:46:09;;;;;;;28.20;25.38;;;;;;;21.94;100.00;102035.00;5064022;28;20029;-76
2023/09/02 10:48:40;;;;;;;28.27;25.58;;;;;;;22.25;100.00;102038.75;5063181;28;20067;-76
2023/09/02 10:51:07;;;;;;;27.88;25.13;;;;;;;22.50;100.00;102043.56;5064658;28;20042;-76
2023/09/02 10:53:47;;;;;;;26.33;23.92;;;;;;;22.76;100.00;102043.00;5063005;28;20024;-76
2023/09/02 10:56:28;;;;;;;26.95;24.27;;;;;;;22.93;100.00;102031.44;5056867;28;20094;-76
2023/09/02 10:58:54;;;;;;;26.75;24.02;;;;;;;22.86;100.00;102030.06;5063699;28;20037;-76
2023/09/02 11:01:20;;;;;;;26.02;23.60;;;;;;;22.68;100.00;102039.91;5063478;28;20042;-76